Time;durP1;ratioP1;P1;durP2;ratioP2;P2;SDS_P1;SDS_P2;PMS_P1;PMS_P2;Temp;Humidity;BMP_temperature;BMP_pressure;BME280_temperature;BME280_humidity;BME280_pressure;Samples;Min_cycle;Max_cycle;Signal;HPM_P1;HPM_P2
2021/06/30 00:01:23;;;;;;;1.13;0.90;;;17.40;80.80;;;;;;5055048;28;20051;-81
2021/06/30 00:03:48;;;;;;;0.90;0.90;;;17.40;80.90;;;;;;5053829;28;20071;-80
2021/06/30 00:06:18;;;;;;;0.75;0.70;;;17.50;80.90;;;;;;5054045;28;20017;-82
2021/06/30 00:08:43;;;;;;;0.73;0.73;;;17.60;80.90;;;;;;5054815;28;20021;-81
2021/06/30 00:11:09;;;;;;;0.80;0.80;;;17.60;80.80;;;;;;5053320;28;20500;-81
2021/06/30 00:13:34;;;;;;;0.90;0.90;;;17.50;80.70;;;;;;5053442;28;20484;-81
2021/06/30 00:16:00;;;;;;;0.88;0.85;;;17.50;80.80;;;;;;5053547;28;20465;-81
2021/06/30 00:18:26;;;;;;;1.02;0.77;;;17.50;80.90;;;;;;5054733;28;20037;-81
2021/06/30 00:20:52;;;;;;;0.80;0.80;;;17.50;81.00;;;;;;5053452;28;20148;-81
2021/06/30 00:23:18;;;;;;;0.68;0.68;;;17.50;81.10;;;;;;5054550;28;20041;-81
2021/06/30 00:25:44;;;;;;;1.70;0.90;;;17.40;81.10;;;;;;5054668;28;20021;-80
2021/06/30 00:28:10;;;;;;;0.75;0.75;;;17.40;81.30;;;;;;5054527;28;20086;-80
2021/06/30 00:30:36;;;;;;;0.80;0.60;;;17.40;81.30;;;;;;5053212;28;20051;-81
2021/06/30 00:33:02;;;;;;;0.70;0.70;;;17.40;81.20;;;;;;5053003;28;20025;-82
2021/06/30 00:35:28;;;;;;;0.77;0.70;;;17.40;81.30;;;;;;5053234;28;20036;-81
2021/06/30 00:37:53;;;;;;;1.20;0.47;;;17.40;81.40;;;;;;5053343;28;20029;-81
2021/06/30 00:40:20;;;;;;;1.38;0.65;;;17.40;81.50;;;;;;5053986;28;20108;-81
2021/06/30 00:42:45;;;;;;;0.80;0.80;;;17.40;81.60;;;;;;5054334;28;20036;-80
2021/06/30 00:45:15;;;;;;;0.70;0.70;;;17.40;81.50;;;;;;5052538;28;20377;-81
2021/06/30 00:47:41;;;;;;;1.08;1.00;;;17.40;81.40;;;;;;5052597;28;20056;-80
2021/06/30 00:50:06;;;;;;;1.35;0.63;;;17.30;81.40;;;;;;5052886;28;20036;-80
2021/06/30 00:52:32;;;;;;;0.60;0.60;;;17.30;81.50;;;;;;5052522;28;20445;-81
2021/06/30 00:54:58;;;;;;;0.60;0.60;;;17.20;81.60;;;;;;5052433;28;20400;-81
2021/06/30 00:57:23;;;;;;;0.73;0.73;;;17.20;81.70;;;;;;5054358;28;20100;-81
2021/06/30 00:59:49;;;;;;;0.88;0.82;;;17.20;81.80;;;;;;5052791;28;20025;-81
2021/06/30 01:02:15;;;;;;;1.20;0.90;;;17.20;81.80;;;;;;5053011;28;20028;-81
2021/06/30 01:04:40;;;;;;;1.30;0.80;;;17.10;81.80;;;;;;5053551;28;20409;-81
2021/06/30 01:07:06;;;;;;;0.90;0.75;;;17.10;81.80;;;;;;5053747;28;20087;-81
2021/06/30 01:09:32;;;;;;;0.65;0.65;;;17.20;81.90;;;;;;5053957;28;20029;-81
2021/06/30 01:11:59;;;;;;;1.20;0.70;;;17.20;81.90;;;;;;5053510;28;20034;-81
2021/06/30 01:14:25;;;;;;;0.77;0.77;;;17.20;81.80;;;;;;5052172;28;20025;-80
2021/06/30 01:16:52;;;;;;;0.90;0.90;;;17.20;81.90;;;;;;5052063;28;20021;-81
2021/06/30 01:19:22;;;;;;;0.95;0.88;;;17.20;81.80;;;;;;5052198;28;20029;-82
2021/06/30 01:21:49;;;;;;;0.80;0.80;;;17.20;81.80;;;;;;5053270;28;20025;-80
2021/06/30 01:24:15;;;;;;;0.98;0.68;;;17.20;81.80;;;;;;5052126;28;20031;-81
2021/06/30 01:26:41;;;;;;;0.60;0.60;;;17.20;81.80;;;;;;5051652;28;20021;-80
2021/06/30 01:29:07;;;;;;;0.80;0.80;;;17.20;81.80;;;;;;5051768;28;20036;-80
2021/06/30 01:31:33;;;;;;;0.70;0.70;;;17.20;81.70;;;;;;5051898;28;20044;-81
2021/06/30 01:33:59;;;;;;;1.02;0.98;;;17.30;81.80;;;;;;5053280;28;20025;-80
2021/06/30 01:36:24;;;;;;;1.20;0.90;;;17.20;81.70;;;;;;5053125;28;20077;-80
2021/06/30 01:38:50;;;;;;;0.80;0.80;;;17.20;81.80;;;;;;5051946;28;20498;-80
2021/06/30 01:41:16;;;;;;;0.70;0.70;;;17.30;81.80;;;;;;5051755;28;20059;-79
2021/06/30 01:43:41;;;;;;;1.25;0.80;;;17.30;81.80;;;;;;5051964;28;20060;-80
2021/06/30 01:46:07;;;;;;;0.93;0.85;;;17.30;81.80;;;;;;5052995;28;20040;-80
2021/06/30 01:48:33;;;;;;;0.90;0.90;;;17.20;81.80;;;;;;5051685;28;20021;-81
2021/06/30 01:51:00;;;;;;;2.30;0.98;;;17.20;81.80;;;;;;5051636;28;20114;-80
2021/06/30 01:53:26;;;;;;;0.88;0.80;;;17.10;81.90;;;;;;5051843;28;20021;-80
2021/06/30 01:55:51;;;;;;;1.35;0.82;;;17.10;81.90;;;;;;5052828;28;20542;-81
2021/06/30 01:58:19;;;;;;;0.75;0.75;;;17.10;82.00;;;;;;5048661;28;20587;-80
2021/06/30 02:00:52;;;;;;;0.95;0.90;;;17.10;82.00;;;;;;5051412;28;20040;-79
2021/06/30 02:03:18;;;;;;;0.80;0.80;;;17.10;82.10;;;;;;5052751;28;20111;-79
2021/06/30 02:05:45;;;;;;;0.88;0.88;;;17.10;82.10;;;;;;5051886;28;20029;-80
2021/06/30 02:08:10;;;;;;;1.58;0.70;;;17.00;82.00;;;;;;5051954;28;20053;-79
2021/06/30 02:10:36;;;;;;;2.35;0.90;;;17.00;82.00;;;;;;5051650;28;20060;-80
2021/06/30 02:13:02;;;;;;;0.75;0.75;;;17.00;82.00;;;;;;5052755;28;20026;-81
2021/06/30 02:15:29;;;;;;;0.77;0.77;;;16.90;82.10;;;;;;5051620;28;20056;-80
2021/06/30 02:17:57;;;;;;;0.90;0.80;;;16.90;82.30;;;;;;5051459;28;20021;-80
2021/06/30 02:20:24;;;;;;;0.93;0.93;;;17.00;82.30;;;;;;5051274;28;20140;-79
2021/06/30 02:22:50;;;;;;;0.90;0.70;;;16.90;82.30;;;;;;5051511;28;20025;-80
2021/06/30 02:25:18;;;;;;;0.80;0.80;;;16.90;82.30;;;;;;5052712;28;20503;-79
2021/06/30 02:27:44;;;;;;;0.63;0.63;;;17.00;82.30;;;;;;5051145;28;20025;-79
2021/06/30 02:30:13;;;;;;;0.68;0.68;;;16.90;82.20;;;;;;5052647;28;20017;-79
2021/06/30 02:32:39;;;;;;;0.80;0.80;;;16.90;82.40;;;;;;5052365;28;20091;-79
2021/06/30 02:35:08;;;;;;;0.68;0.68;;;16.90;82.40;;;;;;5052500;28;20100;-80
2021/06/30 02:37:34;;;;;;;0.80;0.80;;;16.80;82.40;;;;;;5052426;28;20489;-80
2021/06/30 02:39:59;;;;;;;0.95;0.77;;;16.70;82.60;;;;;;5052300;28;20111;-80
2021/06/30 02:42:25;;;;;;;0.80;0.80;;;16.70;82.70;;;;;;5052292;28;20033;-78
2021/06/30 02:44:51;;;;;;;0.65;0.65;;;16.70;82.70;;;;;;5052353;28;20027;-79
2021/06/30 02:47:16;;;;;;;0.77;0.70;;;16.60;83.30;;;;;;5051220;28;20021;-79
2021/06/30 02:49:42;;;;;;;0.60;0.60;;;16.60;82.80;;;;;;5051023;28;20013;-79
2021/06/30 02:52:08;;;;;;;0.70;0.70;;;16.50;82.80;;;;;;5052418;28;20026;-79
2021/06/30 02:54:33;;;;;;;0.95;0.50;;;16.60;83.00;;;;;;5050952;28;20389;-78
2021/06/30 02:56:59;;;;;;;0.63;0.60;;;16.60;82.90;;;;;;5052282;28;20078;-79
2021/06/30 02:59:25;;;;;;;0.60;0.60;;;16.50;83.00;;;;;;5051117;28;20025;-79
2021/06/30 03:01:50;;;;;;;0.50;0.50;;;16.50;83.10;;;;;;5054052;28;20456;-79
2021/06/30 03:04:16;;;;;;;0.63;0.63;;;16.50;83.10;;;;;;5055734;28;20041;-79
2021/06/30 03:06:41;;;;;;;0.43;0.43;;;16.40;83.20;;;;;;5054739;28;20021;-81
2021/06/30 03:09:07;;;;;;;0.55;0.55;;;16.40;83.30;;;;;;5055866;28;20025;-79
2021/06/30 03:11:32;;;;;;;0.70;0.70;;;16.30;83.40;;;;;;5055791;28;20024;-78
2021/06/30 03:13:58;;;;;;;0.60;0.60;;;16.30;83.50;;;;;;5054776;28;20025;-77
2021/06/30 03:16:23;;;;;;;0.60;0.60;;;16.30;83.70;;;;;;5055865;28;20021;-80
2021/06/30 03:18:49;;;;;;;0.70;0.60;;;16.20;83.90;;;;;;5054612;28;20560;-78
2021/06/30 03:21:14;;;;;;;0.73;0.73;;;16.20;84.00;;;;;;5055648;28;20029;-79
2021/06/30 03:23:40;;;;;;;0.70;0.70;;;16.20;84.20;;;;;;5055323;28;20108;-78
2021/06/30 03:26:06;;;;;;;0.60;0.60;;;16.20;84.30;;;;;;5055413;28;20051;-78
2021/06/30 03:28:32;;;;;;;0.60;0.60;;;16.20;84.40;;;;;;5055404;28;20067;-79
2021/06/30 03:30:58;;;;;;;0.68;0.68;;;16.20;84.30;;;;;;5053901;28;20025;-78
2021/06/30 03:33:23;;;;;;;0.60;0.60;;;16.20;84.40;;;;;;5054018;28;20120;-79
2021/06/30 03:35:49;;;;;;;0.80;0.70;;;16.20;84.50;;;;;;5055196;28;20021;-79
2021/06/30 03:38:15;;;;;;;0.60;0.60;;;16.20;84.40;;;;;;5053993;28;20362;-78
2021/06/30 03:40:41;;;;;;;0.63;0.63;;;16.10;84.30;;;;;;5053802;28;20040;-78
2021/06/30 03:43:06;;;;;;;0.82;0.82;;;16.20;84.40;;;;;;5055103;28;20021;-79
2021/06/30 03:45:32;;;;;;;0.68;0.63;;;16.20;84.40;;;;;;5053815;28;20021;-79
2021/06/30 03:47:57;;;;;;;0.63;0.63;;;16.20;84.40;;;;;;5053730;28;20017;-78
2021/06/30 03:50:23;;;;;;;0.60;0.60;;;16.20;84.30;;;;;;5053755;28;20354;-78
2021/06/30 03:52:49;;;;;;;0.43;0.43;;;16.20;84.30;;;;;;5053912;28;20104;-78
2021/06/30 03:55:14;;;;;;;0.60;0.60;;;16.20;84.40;;;;;;5054846;28;20052;-78
2021/06/30 03:57:40;;;;;;;0.80;0.80;;;16.20;84.50;;;;;;5053637;28;20029;-78
2021/06/30 04:00:07;;;;;;;0.98;0.90;;;16.20;84.50;;;;;;5053534;28;20032;-78
2021/06/30 04:02:33;;;;;;;0.70;0.70;;;16.10;84.50;;;;;;5054968;28;20032;-78
2021/06/30 04:04:58;;;;;;;0.95;0.90;;;16.10;84.60;;;;;;5054510;28;20147;-79
2021/06/30 04:07:24;;;;;;;0.98;0.88;;;16.10;84.80;;;;;;5053288;28;20013;-79
2021/06/30 04:09:49;;;;;;;2.33;0.80;;;16.10;84.90;;;;;;5054714;28;20432;-78
2021/06/30 04:12:15;;;;;;;0.80;0.80;;;16.10;84.80;;;;;;5053527;28;20024;-79
2021/06/30 04:14:41;;;;;;;0.80;0.80;;;16.20;84.80;;;;;;5054494;28;20452;-78
2021/06/30 04:17:06;;;;;;;1.13;1.02;;;16.20;84.70;;;;;;5054470;28;20032;-79
2021/06/30 04:19:32;;;;;;;1.13;1.02;;;16.20;84.70;;;;;;5054610;28;20075;-78
2021/06/30 04:21:57;;;;;;;1.92;1.02;;;16.20;84.60;;;;;;5053018;28;20434;-78
2021/06/30 04:24:23;;;;;;;1.27;1.10;;;16.20;84.60;;;;;;5053038;28;20025;-79
2021/06/30 04:26:49;;;;;;;1.10;1.00;;;16.20;84.60;;;;;;5052842;28;20016;-78
2021/06/30 04:29:14;;;;;;;1.20;1.10;;;16.20;84.70;;;;;;5052942;28;20106;-79
2021/06/30 04:31:40;;;;;;;1.27;1.10;;;16.10;84.70;;;;;;5054125;28;20021;-77
2021/06/30 04:34:05;;;;;;;1.23;0.90;;;16.10;84.60;;;;;;5052953;28;20029;-79
2021/06/30 04:36:31;;;;;;;1.20;1.10;;;16.10;84.70;;;;;;5052874;28;20025;-79
2021/06/30 04:38:57;;;;;;;1.30;1.02;;;16.00;84.60;;;;;;5052706;28;20017;-78
2021/06/30 04:41:22;;;;;;;1.30;1.20;;;16.00;84.70;;;;;;5052680;28;20067;-78
2021/06/30 04:43:48;;;;;;;1.30;1.20;;;16.00;84.80;;;;;;5053770;28;20472;-79
2021/06/30 04:46:13;;;;;;;0.98;0.98;;;16.10;84.70;;;;;;5053883;28;20035;-78
2021/06/30 04:48:39;;;;;;;1.50;1.40;;;16.10;84.70;;;;;;5052453;28;20025;-79
2021/06/30 04:51:05;;;;;;;1.77;1.40;;;16.00;84.60;;;;;;5053765;28;20025;-78
2021/06/30 04:53:31;;;;;;;1.52;1.40;;;16.10;84.60;;;;;;5052442;28;20027;-79
2021/06/30 04:55:58;;;;;;;1.95;1.30;;;16.10;84.60;;;;;;5053761;28;20108;-78
2021/06/30 04:58:25;;;;;;;1.40;1.30;;;16.10;84.60;;;;;;5052517;28;20028;-78
2021/06/30 05:00:55;;;;;;;1.63;1.50;;;16.00;84.60;;;;;;5052217;28;20044;-79
2021/06/30 05:03:27;;;;;;;1.88;1.55;;;16.00;84.70;;;;;;5051970;28;20048;-79
2021/06/30 05:05:56;;;;;;;1.60;1.50;;;16.00;84.70;;;;;;5052151;28;20028;-78
2021/06/30 05:08:23;;;;;;;1.75;1.55;;;16.00;84.70;;;;;;5052244;28;20025;-79
2021/06/30 05:10:50;;;;;;;2.15;1.50;;;15.90;84.70;;;;;;5052077;28;20025;-79
2021/06/30 05:13:15;;;;;;;1.50;1.40;;;15.90;84.80;;;;;;5052104;28;20032;-79
2021/06/30 05:15:41;;;;;;;1.38;1.30;;;15.90;84.90;;;;;;5051993;28;20025;-78
2021/06/30 05:18:07;;;;;;;2.28;1.60;;;15.90;84.90;;;;;;5052064;28;20433;-78
2021/06/30 05:20:32;;;;;;;2.22;1.80;;;15.80;84.90;;;;;;5052205;28;20024;-79
2021/06/30 05:22:58;;;;;;;1.80;1.70;;;15.80;85.20;;;;;;5052869;28;20035;-77
2021/06/30 05:25:24;;;;;;;1.60;1.50;;;15.80;85.10;;;;;;5053248;28;20024;-79
2021/06/30 05:27:49;;;;;;;2.20;1.80;;;15.70;85.10;;;;;;5052325;28;20104;-78
2021/06/30 05:30:15;;;;;;;1.60;1.50;;;15.80;85.30;;;;;;5051912;28;20052;-79
2021/06/30 05:32:41;;;;;;;1.60;1.50;;;15.80;85.20;;;;;;5051736;28;20036;-79
2021/06/30 05:35:07;;;;;;;1.77;1.50;;;15.80;85.20;;;;;;5051849;28;20384;-79
2021/06/30 05:37:33;;;;;;;1.80;1.70;;;15.80;85.20;;;;;;5052939;28;20028;-79
2021/06/30 05:39:59;;;;;;;1.77;1.65;;;15.80;85.20;;;;;;5051705;28;20424;-78
2021/06/30 05:42:24;;;;;;;1.70;1.60;;;15.80;85.20;;;;;;5051637;28;20060;-78
2021/06/30 05:44:50;;;;;;;1.77;1.67;;;15.90;85.30;;;;;;5051551;28;20025;-78
2021/06/30 05:47:16;;;;;;;2.38;1.60;;;15.90;85.20;;;;;;5051622;28;20020;-78
2021/06/30 05:49:41;;;;;;;1.60;1.50;;;15.90;85.20;;;;;;5051798;28;20025;-78
2021/06/30 05:52:07;;;;;;;1.77;1.50;;;15.90;85.10;;;;;;5052801;28;20013;-78
2021/06/30 05:54:33;;;;;;;1.88;1.63;;;16.00;85.20;;;;;;5052765;28;20017;-78
2021/06/30 05:56:58;;;;;;;1.85;1.45;;;16.00;85.30;;;;;;5052730;28;20106;-78
2021/06/30 05:59:24;;;;;;;2.25;1.50;;;16.00;85.30;;;;;;5051797;28;20047;-77
2021/06/30 06:01:49;;;;;;;1.60;1.50;;;16.00;85.30;;;;;;5052579;28;20026;-78
2021/06/30 06:04:15;;;;;;;1.92;1.75;;;16.00;85.30;;;;;;5051201;28;20485;-78
2021/06/30 06:06:40;;;;;;;2.55;1.48;;;16.00;85.50;;;;;;5052730;28;20112;-78
2021/06/30 06:09:06;;;;;;;1.80;1.70;;;16.00;85.40;;;;;;5052682;28;20053;-79
2021/06/30 06:11:31;;;;;;;1.40;1.30;;;16.00;85.50;;;;;;5051267;28;20021;-79
2021/06/30 06:13:57;;;;;;;1.38;1.27;;;16.10;85.50;;;;;;5051416;28;20033;-78
2021/06/30 06:16:23;;;;;;;1.60;1.50;;;16.10;85.50;;;;;;5051295;28;20503;-78
2021/06/30 06:18:49;;;;;;;2.45;1.65;;;16.00;85.40;;;;;;5051344;28;20063;-78
2021/06/30 06:21:15;;;;;;;1.52;1.40;;;16.00;85.60;;;;;;5051455;28;20033;-78
2021/06/30 06:23:41;;;;;;;1.58;1.48;;;16.00;85.70;;;;;;5052457;28;20029;-78
2021/06/30 06:26:08;;;;;;;1.40;1.25;;;16.00;85.70;;;;;;5052757;28;20074;-79
2021/06/30 06:28:34;;;;;;;1.40;1.30;;;16.00;85.70;;;;;;5051262;28;20040;-78
2021/06/30 06:31:02;;;;;;;1.73;1.45;;;16.00;85.70;;;;;;5051212;28;20025;-77
2021/06/30 06:33:28;;;;;;;1.20;1.20;;;16.00;85.70;;;;;;5051173;28;20064;-78
2021/06/30 06:35:54;;;;;;;1.48;1.38;;;16.00;85.60;;;;;;5053445;28;20421;-79
2021/06/30 06:38:22;;;;;;;1.38;1.27;;;16.00;85.70;;;;;;5055023;28;20124;-78
2021/06/30 06:40:48;;;;;;;1.20;1.10;;;16.10;85.70;;;;;;5054960;28;20111;-78
2021/06/30 06:43:14;;;;;;;1.15;1.13;;;16.10;85.70;;;;;;5054828;28;20056;-78
2021/06/30 06:45:40;;;;;;;1.50;1.40;;;16.00;85.50;;;;;;5056279;28;20457;-79
2021/06/30 06:48:06;;;;;;;1.23;1.17;;;16.00;85.70;;;;;;5056141;28;20021;-78
2021/06/30 06:50:31;;;;;;;1.35;1.25;;;16.10;85.70;;;;;;5054744;28;20044;-78
2021/06/30 06:52:57;;;;;;;1.48;1.38;;;16.10;85.60;;;;;;5056311;28;20025;-78
2021/06/30 06:55:23;;;;;;;1.30;1.20;;;16.20;85.50;;;;;;5056188;28;20036;-79
2021/06/30 06:57:50;;;;;;;1.52;1.42;;;16.20;85.50;;;;;;5054645;28;20050;-79
2021/06/30 07:00:16;;;;;;;1.50;1.40;;;16.20;85.40;;;;;;5054686;28;20060;-78
2021/06/30 07:02:42;;;;;;;1.40;1.30;;;16.20;85.50;;;;;;5054435;28;20031;-78
2021/06/30 07:05:08;;;;;;;1.35;1.25;;;16.20;85.50;;;;;;5054485;28;20133;-79
2021/06/30 07:07:39;;;;;;;1.48;1.38;;;16.20;85.50;;;;;;5054590;28;20013;-78
2021/06/30 07:10:05;;;;;;;1.17;1.08;;;16.30;85.40;;;;;;5055853;28;20432;-78
2021/06/30 07:12:30;;;;;;;0.93;0.93;;;16.40;85.30;;;;;;5054404;28;20508;-77
2021/06/30 07:14:58;;;;;;;1.58;1.30;;;16.40;85.20;;;;;;5059301;28;20077;-80
2021/06/30 07:17:23;;;;;;;1.20;1.20;;;16.50;85.10;;;;;;5057222;28;20032;-78
2021/06/30 07:19:49;;;;;;;1.20;1.20;;;16.60;85.10;;;;;;5055919;28;20025;-79
2021/06/30 07:22:14;;;;;;;1.20;1.10;;;16.60;85.00;;;;;;5055007;28;20123;-81
2021/06/30 07:24:40;;;;;;;1.13;1.10;;;16.60;84.90;;;;;;5054082;28;20067;-76
2021/06/30 07:27:06;;;;;;;1.48;1.23;;;16.70;84.80;;;;;;5054093;28;20496;-76
2021/06/30 07:29:37;;;;;;;1.55;1.30;;;16.70;84.70;;;;;;5053956;28;20028;-75
2021/06/30 07:32:05;;;;;;;1.30;1.10;;;16.70;84.50;;;;;;5054471;28;20075;-77
2021/06/30 07:34:31;;;;;;;1.40;1.30;;;16.70;84.50;;;;;;5053940;28;20104;-77
2021/06/30 07:36:58;;;;;;;1.23;1.10;;;16.70;84.40;;;;;;5054208;28;20104;-77
2021/06/30 07:39:24;;;;;;;1.20;1.10;;;16.70;84.50;;;;;;5055209;28;20028;-76
2021/06/30 07:41:51;;;;;;;1.10;1.10;;;16.70;84.60;;;;;;5053892;28;20365;-77
2021/06/30 07:44:17;;;;;;;1.63;1.52;;;16.70;84.50;;;;;;5055061;28;20052;-76
2021/06/30 07:46:43;;;;;;;1.40;1.30;;;16.70;84.40;;;;;;5054759;28;20017;-77
2021/06/30 07:49:09;;;;;;;1.40;1.30;;;16.80;84.40;;;;;;5055098;28;20017;-77
2021/06/30 07:51:34;;;;;;;1.27;1.25;;;16.80;84.30;;;;;;5054921;28;20100;-77
2021/06/30 07:54:00;;;;;;;1.38;1.27;;;16.80;84.40;;;;;;5054982;28;20083;-77
2021/06/30 07:56:36;;;;;;;1.40;1.30;;;16.80;84.30;;;;;;5054966;28;20055;-77
2021/06/30 07:59:11;;;;;;;5.80;4.75;;;16.90;84.30;;;;;;5054888;28;20500;-77
2021/06/30 08:01:38;;;;;;;2.50;2.30;;;17.00;84.20;;;;;;5054570;28;20142;-77
2021/06/30 08:04:05;;;;;;;2.10;1.90;;;17.00;84.10;;;;;;5054614;28;20051;-77
2021/06/30 08:06:31;;;;;;;2.40;1.90;;;17.00;84.00;;;;;;5053244;28;20017;-77
2021/06/30 08:08:56;;;;;;;1.80;1.70;;;17.00;84.00;;;;;;5053332;28;20473;-77
2021/06/30 08:11:25;;;;;;;1.70;1.60;;;17.10;84.00;;;;;;5054741;28;20544;-77
2021/06/30 08:13:53;;;;;;;1.80;1.70;;;17.20;83.90;;;;;;5053110;28;20033;-77
2021/06/30 08:16:20;;;;;;;1.40;1.30;;;17.20;83.60;;;;;;5053124;28;20390;-77
2021/06/30 08:18:46;;;;;;;1.40;1.30;;;17.20;83.60;;;;;;5053095;28;20031;-77
2021/06/30 08:21:12;;;;;;;1.80;1.70;;;17.20;83.60;;;;;;5054549;28;20025;-77
2021/06/30 08:23:38;;;;;;;1.60;1.50;;;17.30;83.60;;;;;;5054233;28;20082;-77
2021/06/30 08:26:03;;;;;;;1.70;1.60;;;17.30;83.50;;;;;;5054888;28;20025;-77
2021/06/30 08:28:31;;;;;;;1.50;1.40;;;17.30;84.10;;;;;;5055981;28;20468;-78
2021/06/30 08:34:18;;;;;;;1.58;1.48;;;17.40;83.50;;;;;;5055962;28;20036;-77
2021/06/30 08:36:44;;;;;;;1.40;1.30;;;17.40;83.30;;;;;;5054516;28;20013;-77
2021/06/30 08:39:10;;;;;;;1.50;1.40;;;17.40;83.20;;;;;;5053227;28;20017;-77
2021/06/30 08:41:36;;;;;;;1.70;1.60;;;17.40;83.20;;;;;;5054660;28;20017;-77
2021/06/30 08:44:02;;;;;;;2.05;1.60;;;17.30;83.30;;;;;;5053970;28;20539;-77
2021/06/30 08:46:30;;;;;;;1.50;1.40;;;17.30;83.30;;;;;;5054350;28;20024;-77
2021/06/30 08:48:57;;;;;;;1.50;1.40;;;17.30;84.00;;;;;;5054132;28;20024;-77
2021/06/30 08:51:25;;;;;;;1.10;1.10;;;17.40;83.30;;;;;;5053256;28;20388;-77
2021/06/30 08:53:53;;;;;;;1.50;1.40;;;17.40;83.30;;;;;;5053829;28;20025;-77
2021/06/30 08:56:20;;;;;;;1.48;1.38;;;17.40;83.20;;;;;;5053720;28;20591;-77
2021/06/30 08:58:50;;;;;;;1.67;1.58;;;17.40;83.10;;;;;;5051638;28;20017;-77
2021/06/30 09:01:17;;;;;;;1.70;1.20;;;17.40;83.10;;;;;;5052222;28;20074;-77
2021/06/30 09:03:49;;;;;;;1.63;1.52;;;17.40;83.00;;;;;;5052040;28;20040;-77
2021/06/30 09:06:16;;;;;;;1.40;1.30;;;17.40;82.90;;;;;;5052189;28;20021;-76
2021/06/30 09:08:48;;;;;;;1.40;1.30;;;17.40;82.90;;;;;;5052294;28;20380;-77
2021/06/30 09:11:20;;;;;;;1.35;1.27;;;17.40;82.90;;;;;;5053345;28;20029;-78
2021/06/30 09:13:48;;;;;;;1.70;1.60;;;17.50;82.90;;;;;;5052092;28;20431;-77
2021/06/30 09:19:56;;;;;;;1.60;1.50;;;17.50;82.90;;;;;;5053644;28;20028;-77
2021/06/30 09:22:27;;;;;;;1.60;1.48;;;17.50;82.90;;;;;;5051866;28;20124;-77
2021/06/30 09:24:54;;;;;;;1.50;1.40;;;17.60;83.00;;;;;;5051987;28;20029;-77
2021/06/30 09:27:39;;;;;;;1.35;1.30;;;17.60;82.80;;;;;;5053134;28;20013;-77
2021/06/30 09:30:07;;;;;;;1.48;1.38;;;17.70;82.70;;;;;;5051778;28;20052;-78
2021/06/30 09:32:33;;;;;;;1.40;1.23;;;17.70;82.60;;;;;;5051743;28;20040;-77
2021/06/30 09:35:37;;;;;;;1.40;1.30;;;17.70;82.50;;;;;;5053006;28;20032;-77
2021/06/30 09:38:30;;;;;;;1.25;1.15;;;17.70;82.40;;;;;;5014454;28;20078;-77
2021/06/30 09:40:56;;;;;;;1.50;1.27;;;17.70;82.40;;;;;;5014392;28;20601;-77
2021/06/30 09:43:27;;;;;;;1.30;1.20;;;17.70;82.60;;;;;;5045428;28;20048;-77
2021/06/30 09:45:54;;;;;;;1.10;1.00;;;17.70;82.50;;;;;;5052981;28;20025;-77
2021/06/30 09:48:28;;;;;;;1.50;1.40;;;17.60;82.50;;;;;;5051631;28;20473;-77
2021/06/30 09:50:54;;;;;;;1.17;1.08;;;17.60;82.60;;;;;;5051513;28;20021;-77
2021/06/30 09:53:36;;;;;;;1.38;1.35;;;17.70;82.60;;;;;;5052795;28;20041;-77
2021/06/30 09:56:14;;;;;;;1.50;1.40;;;17.70;82.60;;;;;;5051503;28;20029;-76
2021/06/30 09:58:40;;;;;;;1.40;1.30;;;17.70;82.60;;;;;;5051820;28;20476;-76
2021/06/30 10:01:17;;;;;;;1.30;1.15;;;17.70;82.60;;;;;;5051424;28;20025;-77
2021/06/30 10:03:43;;;;;;;1.30;1.30;;;17.60;82.50;;;;;;5051173;28;20094;-77
2021/06/30 10:06:29;;;;;;;2.17;1.50;;;17.70;82.50;;;;;;5052682;28;20103;-77
2021/06/30 10:08:56;;;;;;;1.50;1.40;;;17.60;82.30;;;;;;5052795;28;20105;-77
2021/06/30 10:11:23;;;;;;;1.48;1.38;;;17.60;82.60;;;;;;5055577;28;20017;-78
2021/06/30 10:13:49;;;;;;;1.50;1.40;;;17.60;82.60;;;;;;5056767;28;20033;-77
2021/06/30 10:16:17;;;;;;;1.40;1.30;;;17.70;82.60;;;;;;5055460;28;20033;-77
2021/06/30 10:18:43;;;;;;;1.60;1.50;;;17.70;82.50;;;;;;5056684;28;20017;-77
2021/06/30 10:21:10;;;;;;;1.60;1.50;;;17.80;82.20;;;;;;5056670;28;20100;-77
2021/06/30 10:23:36;;;;;;;1.80;1.58;;;17.90;82.10;;;;;;5055024;28;20068;-77
2021/06/30 10:26:03;;;;;;;1.55;1.45;;;17.90;82.10;;;;;;5055327;28;20029;-77
2021/06/30 10:28:29;;;;;;;1.60;1.50;;;17.90;82.00;;;;;;5056609;28;20029;-77
2021/06/30 10:30:55;;;;;;;1.42;1.33;;;17.90;82.10;;;;;;5055113;28;20024;-77
2021/06/30 10:33:33;;;;;;;1.73;1.63;;;17.90;82.10;;;;;;5055064;28;20104;-77
2021/06/30 10:36:00;;;;;;;1.70;1.60;;;17.90;82.20;;;;;;5055037;28;20078;-77
2021/06/30 10:38:49;;;;;;;1.95;1.50;;;18.00;82.30;;;;;;5056504;28;20035;-77
2021/06/30 10:41:50;;;;;;;1.60;1.50;;;18.10;82.20;;;;;;5054883;28;20021;-77
2021/06/30 10:44:26;;;;;;;1.35;1.25;;;18.20;82.00;;;;;;5054775;28;20025;-78
2021/06/30 10:46:53;;;;;;;1.88;1.70;;;18.40;81.70;;;;;;5054939;28;20028;-77
2021/06/30 10:49:29;;;;;;;1.67;1.50;;;18.50;81.30;;;;;;5055975;28;20066;-77
2021/06/30 10:51:54;;;;;;;1.50;1.40;;;18.60;81.20;;;;;;5054633;28;20036;-77
2021/06/30 10:54:35;;;;;;;1.55;1.45;;;18.60;81.00;;;;;;5054704;28;20021;-77
2021/06/30 10:57:21;;;;;;;1.40;1.30;;;18.50;81.10;;;;;;5054554;28;20118;-77
2021/06/30 11:00:09;;;;;;;1.58;1.20;;;18.50;81.20;;;;;;5055897;28;20094;-77
2021/06/30 11:02:35;;;;;;;1.25;1.15;;;18.50;81.40;;;;;;5054135;28;20497;-78
2021/06/30 11:05:13;;;;;;;1.27;1.25;;;18.50;81.40;;;;;;5055665;28;20041;-77
2021/06/30 11:07:42;;;;;;;1.25;1.15;;;18.60;81.40;;;;;;5054425;28;20060;-77
2021/06/30 11:10:17;;;;;;;1.30;1.20;;;18.60;81.10;;;;;;5054797;28;20021;-77
2021/06/30 11:12:49;;;;;;;1.50;1.40;;;18.60;81.00;;;;;;5054427;28;20029;-78
2021/06/30 11:15:37;;;;;;;1.33;1.23;;;18.50;80.90;;;;;;5054550;28;20036;-78
2021/06/30 11:18:04;;;;;;;1.30;1.20;;;18.50;81.00;;;;;;5054383;28;20435;-77
2021/06/30 11:20:45;;;;;;;1.10;1.10;;;18.40;81.30;;;;;;5054252;28;20112;-78
2021/06/30 11:23:18;;;;;;;1.15;1.15;;;18.40;81.30;;;;;;5054232;28;20029;-78
2021/06/30 11:25:44;;;;;;;1.17;1.08;;;18.50;81.40;;;;;;5054305;28;20017;-78
2021/06/30 11:28:30;;;;;;;1.40;1.30;;;18.60;81.20;;;;;;5054050;28;20063;-78
2021/06/30 11:30:56;;;;;;;1.60;1.40;;;18.80;81.00;;;;;;5054050;28;20457;-78
2021/06/30 11:33:22;;;;;;;1.50;1.40;;;18.80;80.60;;;;;;5055296;28;20029;-77
2021/06/30 11:35:48;;;;;;;1.42;1.33;;;18.80;80.60;;;;;;5055432;28;20049;-78
2021/06/30 11:38:27;;;;;;;1.83;1.70;;;18.80;80.70;;;;;;5053888;28;20021;-78
2021/06/30 11:41:06;;;;;;;1.92;1.80;;;18.70;80.80;;;;;;5054013;28;20044;-78
2021/06/30 11:43:36;;;;;;;2.10;1.90;;;18.60;80.80;;;;;;5053917;28;20021;-77
2021/06/30 11:46:04;;;;;;;2.50;2.30;;;18.50;80.80;;;;;;5053985;28;20032;-78
2021/06/30 11:48:32;;;;;;;2.55;2.35;;;18.40;81.20;;;;;;5054101;28;20024;-78
2021/06/30 11:51:11;;;;;;;2.28;2.08;;;18.30;81.80;;;;;;5055264;28;20052;-77
2021/06/30 11:53:55;;;;;;;2.70;2.50;;;18.30;81.20;;;;;;5053942;28;20021;-78
2021/06/30 11:56:35;;;;;;;2.90;2.70;;;18.30;81.30;;;;;;5054899;28;20025;-78
2021/06/30 11:59:04;;;;;;;3.40;3.10;;;18.30;81.30;;;;;;5055042;28;20017;-77
2021/06/30 12:01:32;;;;;;;3.10;2.80;;;18.20;81.10;;;;;;5054930;28;20116;-78
2021/06/30 12:04:24;;;;;;;3.30;3.00;;;18.20;81.20;;;;;;5054493;28;20401;-78
2021/06/30 12:07:01;;;;;;;3.17;2.92;;;18.10;81.10;;;;;;5053781;28;20112;-78
2021/06/30 12:09:42;;;;;;;3.22;2.92;;;18.00;81.30;;;;;;5054717;28;20017;-78
2021/06/30 12:12:10;;;;;;;4.22;3.42;;;18.00;81.50;;;;;;5053406;28;20017;-78
2021/06/30 12:14:43;;;;;;;2.90;2.70;;;17.90;81.60;;;;;;5053018;28;20095;-78
2021/06/30 12:17:11;;;;;;;3.57;3.27;;;17.90;82.30;;;;;;5054496;28;20067;-78
2021/06/30 12:19:46;;;;;;;3.60;3.30;;;18.00;81.70;;;;;;5053468;28;20271;-78
2021/06/30 12:22:36;;;;;;;2.90;2.70;;;18.00;81.60;;;;;;5052991;28;20445;-78
2021/06/30 12:25:06;;;;;;;2.90;2.70;;;17.90;81.60;;;;;;5051477;28;20033;-78
2021/06/30 12:27:34;;;;;;;3.28;2.97;;;17.90;81.60;;;;;;5054077;28;20477;-77
2021/06/30 12:30:21;;;;;;;3.28;2.97;;;17.90;81.60;;;;;;5052867;28;20159;-78
2021/06/30 12:32:53;;;;;;;3.47;3.28;;;17.90;81.70;;;;;;5051670;28;20040;-77
2021/06/30 12:35:31;;;;;;;3.13;2.92;;;17.90;81.70;;;;;;5052848;28;20500;-78
2021/06/30 12:38:06;;;;;;;3.35;3.10;;;17.80;81.70;;;;;;5052822;28;20116;-78
2021/06/30 12:40:33;;;;;;;3.60;3.30;;;17.90;81.80;;;;;;5052785;28;20495;-77
2021/06/30 12:43:04;;;;;;;3.50;3.20;;;17.80;81.60;;;;;;5054133;28;20028;-78
2021/06/30 12:45:42;;;;;;;4.07;3.78;;;17.80;81.80;;;;;;5052602;28;20060;-79
2021/06/30 12:48:29;;;;;;;3.53;3.05;;;17.80;81.90;;;;;;5053961;28;20060;-78
2021/06/30 12:50:57;;;;;;;3.53;3.22;;;17.80;82.00;;;;;;5053969;28;20028;-78
2021/06/30 12:53:28;;;;;;;3.05;2.80;;;17.80;82.10;;;;;;5052801;28;20595;-78
2021/06/30 12:56:07;;;;;;;3.30;3.00;;;17.80;82.10;;;;;;5052311;28;20484;-77
2021/06/30 12:58:52;;;;;;;3.42;3.13;;;17.80;82.10;;;;;;5052408;28;20039;-77
2021/06/30 13:01:36;;;;;;;4.07;3.63;;;17.80;82.10;;;;;;5052216;28;20025;-78